メインページ
METAR-TAF:

METAR-TAF

空港 :

プリンスルパート, ブリティッシュコロンビア州, カナダ

緯度: 54-18N, 経度: 130-26W, 海抜: 34m

現時点の気象観測

当レポートは21分前の04:41(UTC)に作成
変向風 2kt
気温 10°C
湿度 93%
気圧 1008 hPa
視程: 9.7km
高度2100ftの曇り
小雨, 靄

METAR: CYPR 210441Z AUTO VRB02KT 6SM -RA BR OVC021 10/09 A2977 RMK SLP084

時間: 22:02 (05:02 UTC)

予報

当レポートは4時間24分前の00:38(UTC)に作成
予報は21日の 01時(UTC)から 21日の 13時(UTC)まで有効
南/南西の風 5kt
視程: 10km
高度600ftの雲は散在している
高度2500ftの千切れ雲あり
高度7000ftの曇り
小雨
21日の 01時(UTC)から 21日の 04時(UTC)まで一時的に
視程: 9.7km
高度600ftの千切れ雲あり
高度1500ftの曇り
弱いにわか雨, 靄
21日の 0400時(UTC)から
の風 5kt
視程: 10km
高度1200ftの千切れ雲あり
高度3000ftの曇り
小雨
21日の 04時(UTC)から 21日の 13時(UTC)まで一時的に
視程: 4.8km
高度800ftの千切れ雲あり
高度1200ftの曇り
小雨, 靄

TAF: CYPR 210038Z 2101/2113 21005KT P6SM -RA SCT006 BKN025 OVC070 TEMPO 2101/2104 6SM -SHRA BR BKN006 OVC015 FM210400 18005KT P6SM -RA BKN012 OVC030 TEMPO 2104/2113 3SM -RA BR BKN008 OVC012 RMK FCST BASED ON AUTO OBS. NXT FCST BY 210700Z

4,000以上の空港の気象観測と天気予報(METAR報とTAF報)

利用可能な観測所は地図上に黄色い丸と赤い丸で示す。

丸の上にカーソルを重ねると観測所名を参照できる。

次にクリックすると気象観測と天気予報を参照できる。

マップの切り替え:黒色「×」印の緑ボタンをクリックして拡大、「-」印の緑ボタンをクリックして縮小、緑色の三角印をクリックして隣りの地図に切り替え


METAR-TAF: